sensor_id;sensor_type;location;lat;lon;timestamp;P1;durP1;ratioP1;P2;durP2;ratioP2
3177;SDS011;38141;42.666;23.344;2023-11-18T00:01:35;1.47;;;1.37;;
3177;SDS011;38141;42.666;23.344;2023-11-18T00:04:02;1.73;;;1.47;;
3177;SDS011;38141;42.666;23.344;2023-11-18T00:06:29;1.57;;;1.47;;
3177;SDS011;38141;42.666;23.344;2023-11-18T00:08:56;1.40;;;1.30;;
3177;SDS011;38141;42.666;23.344;2023-11-18T00:11:23;1.60;;;1.50;;
3177;SDS011;38141;42.666;23.344;2023-11-18T00:13:50;1.57;;;1.40;;
3177;SDS011;38141;42.666;23.344;2023-11-18T00:16:17;1.67;;;1.53;;
3177;SDS011;38141;42.666;23.344;2023-11-18T00:18:48;1.33;;;1.23;;
3177;SDS011;38141;42.666;23.344;2023-11-18T00:21:15;1.83;;;1.50;;
3177;SDS011;38141;42.666;23.344;2023-11-18T00:23:42;1.90;;;1.40;;
3177;SDS011;38141;42.666;23.344;2023-11-18T00:26:10;1.33;;;1.23;;
3177;SDS011;38141;42.666;23.344;2023-11-18T00:28:42;1.57;;;1.47;;
3177;SDS011;38141;42.666;23.344;2023-11-18T00:31:09;1.53;;;1.43;;
3177;SDS011;38141;42.666;23.344;2023-11-18T00:33:36;2.13;;;1.60;;
3177;SDS011;38141;42.666;23.344;2023-11-18T00:36:05;1.60;;;1.40;;
3177;SDS011;38141;42.666;23.344;2023-11-18T00:38:33;1.40;;;1.30;;
3177;SDS011;38141;42.666;23.344;2023-11-18T00:41:00;1.77;;;1.57;;
3177;SDS011;38141;42.666;23.344;2023-11-18T00:43:30;1.50;;;1.40;;
3177;SDS011;38141;42.666;23.344;2023-11-18T00:45:57;1.60;;;1.40;;
3177;SDS011;38141;42.666;23.344;2023-11-18T00:48:24;2.17;;;1.40;;
3177;SDS011;38141;42.666;23.344;2023-11-18T00:50:51;1.63;;;1.50;;
3177;SDS011;38141;42.666;23.344;2023-11-18T00:53:20;1.57;;;1.40;;
3177;SDS011;38141;42.666;23.344;2023-11-18T00:55:46;1.50;;;1.40;;
3177;SDS011;38141;42.666;23.344;2023-11-18T00:58:14;1.70;;;1.60;;
3177;SDS011;38141;42.666;23.344;2023-11-18T01:00:41;2.03;;;1.83;;
3177;SDS011;38141;42.666;23.344;2023-11-18T01:03:08;1.73;;;1.60;;
3177;SDS011;38141;42.666;23.344;2023-11-18T01:05:35;3.00;;;2.07;;
3177;SDS011;38141;42.666;23.344;2023-11-18T01:08:02;1.97;;;1.60;;
3177;SDS011;38141;42.666;23.344;2023-11-18T01:10:34;1.80;;;1.70;;
3177;SDS011;38141;42.666;23.344;2023-11-18T01:13:04;2.13;;;1.87;;
3177;SDS011;38141;42.666;23.344;2023-11-18T01:15:31;2.37;;;1.70;;
3177;SDS011;38141;42.666;23.344;2023-11-18T01:18:01;1.60;;;1.50;;
3177;SDS011;38141;42.666;23.344;2023-11-18T01:20:28;1.97;;;1.70;;
3177;SDS011;38141;42.666;23.344;2023-11-18T01:22:55;2.03;;;1.83;;
3177;SDS011;38141;42.666;23.344;2023-11-18T01:25:22;2.90;;;2.43;;
3177;SDS011;38141;42.666;23.344;2023-11-18T01:27:51;2.60;;;2.20;;
3177;SDS011;38141;42.666;23.344;2023-11-18T01:30:18;1.90;;;1.70;;
3177;SDS011;38141;42.666;23.344;2023-11-18T01:32:45;2.47;;;2.20;;
3177;SDS011;38141;42.666;23.344;2023-11-18T01:35:12;2.40;;;2.20;;
3177;SDS011;38141;42.666;23.344;2023-11-18T01:37:39;2.73;;;2.20;;
3177;SDS011;38141;42.666;23.344;2023-11-18T01:40:06;2.70;;;2.40;;
3177;SDS011;38141;42.666;23.344;2023-11-18T01:42:34;2.90;;;2.63;;
3177;SDS011;38141;42.666;23.344;2023-11-18T01:45:04;4.93;;;2.50;;
3177;SDS011;38141;42.666;23.344;2023-11-18T01:47:36;2.97;;;2.43;;
3177;SDS011;38141;42.666;23.344;2023-11-18T01:50:05;3.50;;;2.50;;
3177;SDS011;38141;42.666;23.344;2023-11-18T01:52:34;2.70;;;2.27;;
3177;SDS011;38141;42.666;23.344;2023-11-18T01:55:02;2.53;;;2.00;;
3177;SDS011;38141;42.666;23.344;2023-11-18T01:57:31;2.40;;;2.00;;
3177;SDS011;38141;42.666;23.344;2023-11-18T01:59:58;3.20;;;2.53;;
3177;SDS011;38141;42.666;23.344;2023-11-18T02:02:32;2.87;;;2.30;;
3177;SDS011;38141;42.666;23.344;2023-11-18T02:05:00;4.23;;;2.20;;
3177;SDS011;38141;42.666;23.344;2023-11-18T02:07:27;3.00;;;2.20;;
3177;SDS011;38141;42.666;23.344;2023-11-18T02:09:55;2.53;;;2.10;;
3177;SDS011;38141;42.666;23.344;2023-11-18T02:12:23;2.50;;;2.20;;
3177;SDS011;38141;42.666;23.344;2023-11-18T02:14:56;3.03;;;2.30;;
3177;SDS011;38141;42.666;23.344;2023-11-18T02:17:25;3.77;;;2.83;;
3177;SDS011;38141;42.666;23.344;2023-11-18T02:19:56;2.57;;;2.30;;
3177;SDS011;38141;42.666;23.344;2023-11-18T02:22:24;2.53;;;2.33;;
3177;SDS011;38141;42.666;23.344;2023-11-18T02:24:52;3.03;;;2.50;;
3177;SDS011;38141;42.666;23.344;2023-11-18T02:27:21;3.00;;;2.70;;
3177;SDS011;38141;42.666;23.344;2023-11-18T02:29:51;3.03;;;2.73;;
3177;SDS011;38141;42.666;23.344;2023-11-18T02:32:18;2.87;;;2.50;;
3177;SDS011;38141;42.666;23.344;2023-11-18T02:34:55;3.37;;;3.07;;
3177;SDS011;38141;42.666;23.344;2023-11-18T02:37:30;3.87;;;3.00;;
3177;SDS011;38141;42.666;23.344;2023-11-18T02:40:03;3.07;;;2.80;;
3177;SDS011;38141;42.666;23.344;2023-11-18T02:42:35;3.00;;;2.70;;
3177;SDS011;38141;42.666;23.344;2023-11-18T02:45:03;4.40;;;3.17;;
3177;SDS011;38141;42.666;23.344;2023-11-18T02:47:33;3.40;;;3.10;;
3177;SDS011;38141;42.666;23.344;2023-11-18T02:50:00;3.57;;;3.10;;
3177;SDS011;38141;42.666;23.344;2023-11-18T02:52:30;3.80;;;3.23;;
3177;SDS011;38141;42.666;23.344;2023-11-18T02:54:58;3.20;;;2.90;;
3177;SDS011;38141;42.666;23.344;2023-11-18T02:57:25;3.60;;;3.03;;
3177;SDS011;38141;42.666;23.344;2023-11-18T02:59:53;3.70;;;3.10;;
3177;SDS011;38141;42.666;23.344;2023-11-18T03:02:20;3.23;;;2.93;;
3177;SDS011;38141;42.666;23.344;2023-11-18T03:04:47;3.70;;;3.17;;
3177;SDS011;38141;42.666;23.344;2023-11-18T03:07:14;3.97;;;3.53;;
3177;SDS011;38141;42.666;23.344;2023-11-18T03:09:41;5.10;;;3.77;;
3177;SDS011;38141;42.666;23.344;2023-11-18T03:12:08;3.63;;;3.00;;
3177;SDS011;38141;42.666;23.344;2023-11-18T03:14:36;4.63;;;3.73;;
3177;SDS011;38141;42.666;23.344;2023-11-18T03:17:05;5.10;;;3.90;;
3177;SDS011;38141;42.666;23.344;2023-11-18T03:19:34;4.33;;;3.50;;
3177;SDS011;38141;42.666;23.344;2023-11-18T03:22:02;4.90;;;3.70;;
3177;SDS011;38141;42.666;23.344;2023-11-18T03:24:28;5.60;;;3.80;;
3177;SDS011;38141;42.666;23.344;2023-11-18T03:26:55;4.40;;;3.90;;
3177;SDS011;38141;42.666;23.344;2023-11-18T03:29:22;5.10;;;4.10;;
3177;SDS011;38141;42.666;23.344;2023-11-18T03:31:49;4.80;;;4.17;;
3177;SDS011;38141;42.666;23.344;2023-11-18T03:34:18;6.10;;;4.23;;
3177;SDS011;38141;42.666;23.344;2023-11-18T03:36:46;5.23;;;4.00;;
3177;SDS011;38141;42.666;23.344;2023-11-18T03:39:13;3.77;;;3.37;;
3177;SDS011;38141;42.666;23.344;2023-11-18T03:41:40;6.47;;;3.70;;
3177;SDS011;38141;42.666;23.344;2023-11-18T03:44:09;5.30;;;4.20;;
3177;SDS011;38141;42.666;23.344;2023-11-18T03:46:36;4.50;;;3.37;;
3177;SDS011;38141;42.666;23.344;2023-11-18T03:49:03;3.63;;;3.33;;
3177;SDS011;38141;42.666;23.344;2023-11-18T03:51:32;5.50;;;4.10;;
3177;SDS011;38141;42.666;23.344;2023-11-18T03:53:59;4.60;;;3.20;;
3177;SDS011;38141;42.666;23.344;2023-11-18T03:56:26;4.33;;;3.60;;
3177;SDS011;38141;42.666;23.344;2023-11-18T03:58:53;4.57;;;4.07;;
3177;SDS011;38141;42.666;23.344;2023-11-18T04:01:21;5.00;;;3.83;;
3177;SDS011;38141;42.666;23.344;2023-11-18T04:03:48;4.00;;;3.50;;
3177;SDS011;38141;42.666;23.344;2023-11-18T04:06:15;4.37;;;3.97;;
3177;SDS011;38141;42.666;23.344;2023-11-18T04:08:45;3.90;;;3.50;;
3177;SDS011;38141;42.666;23.344;2023-11-18T04:11:12;4.90;;;3.93;;
3177;SDS011;38141;42.666;23.344;2023-11-18T04:13:39;5.13;;;3.90;;
3177;SDS011;38141;42.666;23.344;2023-11-18T04:16:09;4.90;;;4.20;;
3177;SDS011;38141;42.666;23.344;2023-11-18T04:18:38;6.43;;;4.17;;
3177;SDS011;38141;42.666;23.344;2023-11-18T04:21:05;5.17;;;3.77;;
3177;SDS011;38141;42.666;23.344;2023-11-18T04:23:33;4.60;;;3.90;;
3177;SDS011;38141;42.666;23.344;2023-11-18T04:26:03;4.80;;;4.30;;
3177;SDS011;38141;42.666;23.344;2023-11-18T04:28:30;4.53;;;3.80;;
3177;SDS011;38141;42.666;23.344;2023-11-18T04:30:58;5.57;;;4.40;;
3177;SDS011;38141;42.666;23.344;2023-11-18T04:33:25;5.70;;;3.97;;
3177;SDS011;38141;42.666;23.344;2023-11-18T04:35:54;5.23;;;4.43;;
3177;SDS011;38141;42.666;23.344;2023-11-18T04:38:22;5.00;;;4.20;;
3177;SDS011;38141;42.666;23.344;2023-11-18T04:40:51;4.50;;;3.60;;
3177;SDS011;38141;42.666;23.344;2023-11-18T04:43:20;3.97;;;3.50;;
3177;SDS011;38141;42.666;23.344;2023-11-18T04:45:47;5.53;;;4.10;;
3177;SDS011;38141;42.666;23.344;2023-11-18T04:48:18;5.67;;;3.77;;
3177;SDS011;38141;42.666;23.344;2023-11-18T04:50:46;4.73;;;3.83;;
3177;SDS011;38141;42.666;23.344;2023-11-18T04:53:13;4.70;;;4.10;;
3177;SDS011;38141;42.666;23.344;2023-11-18T04:55:40;4.40;;;3.80;;
3177;SDS011;38141;42.666;23.344;2023-11-18T04:58:07;5.13;;;3.73;;
3177;SDS011;38141;42.666;23.344;2023-11-18T05:00:36;4.47;;;3.37;;
3177;SDS011;38141;42.666;23.344;2023-11-18T05:03:04;4.03;;;3.63;;
3177;SDS011;38141;42.666;23.344;2023-11-18T05:05:34;4.30;;;3.67;;
3177;SDS011;38141;42.666;23.344;2023-11-18T05:08:04;4.93;;;3.33;;
3177;SDS011;38141;42.666;23.344;2023-11-18T05:10:33;4.33;;;3.93;;
3177;SDS011;38141;42.666;23.344;2023-11-18T05:13:00;4.30;;;3.70;;
3177;SDS011;38141;42.666;23.344;2023-11-18T05:15:27;4.00;;;3.43;;
3177;SDS011;38141;42.666;23.344;2023-11-18T05:17:56;5.03;;;3.50;;
3177;SDS011;38141;42.666;23.344;2023-11-18T05:20:23;5.23;;;3.30;;
3177;SDS011;38141;42.666;23.344;2023-11-18T05:22:50;3.70;;;3.07;;
3177;SDS011;38141;42.666;23.344;2023-11-18T05:25:19;4.80;;;3.23;;
3177;SDS011;38141;42.666;23.344;2023-11-18T05:27:46;4.30;;;3.40;;
3177;SDS011;38141;42.666;23.344;2023-11-18T05:30:13;3.07;;;2.77;;
3177;SDS011;38141;42.666;23.344;2023-11-18T05:32:40;3.77;;;3.00;;
3177;SDS011;38141;42.666;23.344;2023-11-18T05:35:08;4.50;;;3.00;;
3177;SDS011;38141;42.666;23.344;2023-11-18T05:37:37;5.27;;;3.40;;
3177;SDS011;38141;42.666;23.344;2023-11-18T05:40:06;3.30;;;3.00;;
3177;SDS011;38141;42.666;23.344;2023-11-18T05:42:34;3.30;;;3.00;;
3177;SDS011;38141;42.666;23.344;2023-11-18T05:45:02;3.53;;;3.00;;
3177;SDS011;38141;42.666;23.344;2023-11-18T05:47:32;4.53;;;3.17;;
3177;SDS011;38141;42.666;23.344;2023-11-18T05:50:02;3.07;;;2.77;;
3177;SDS011;38141;42.666;23.344;2023-11-18T05:52:32;3.47;;;2.60;;
3177;SDS011;38141;42.666;23.344;2023-11-18T05:54:59;2.47;;;2.17;;
3177;SDS011;38141;42.666;23.344;2023-11-18T05:57:26;3.50;;;2.57;;
3177;SDS011;38141;42.666;23.344;2023-11-18T05:59:53;5.57;;;2.40;;
3177;SDS011;38141;42.666;23.344;2023-11-18T06:02:20;3.23;;;2.53;;
3177;SDS011;38141;42.666;23.344;2023-11-18T06:04:48;4.33;;;2.60;;
3177;SDS011;38141;42.666;23.344;2023-11-18T06:07:16;4.13;;;2.80;;
3177;SDS011;38141;42.666;23.344;2023-11-18T06:09:45;2.63;;;2.40;;
3177;SDS011;38141;42.666;23.344;2023-11-18T06:12:12;2.10;;;1.90;;
3177;SDS011;38141;42.666;23.344;2023-11-18T06:14:39;2.60;;;2.10;;
3177;SDS011;38141;42.666;23.344;2023-11-18T06:17:07;2.10;;;1.90;;
3177;SDS011;38141;42.666;23.344;2023-11-18T06:19:34;2.53;;;1.67;;
3177;SDS011;38141;42.666;23.344;2023-11-18T06:22:01;2.90;;;1.93;;
3177;SDS011;38141;42.666;23.344;2023-11-18T06:24:28;2.23;;;1.80;;
3177;SDS011;38141;42.666;23.344;2023-11-18T06:26:56;2.23;;;2.03;;
3177;SDS011;38141;42.666;23.344;2023-11-18T06:29:24;2.93;;;2.00;;
3177;SDS011;38141;42.666;23.344;2023-11-18T06:31:51;2.23;;;1.93;;
3177;SDS011;38141;42.666;23.344;2023-11-18T06:34:18;1.60;;;1.47;;
3177;SDS011;38141;42.666;23.344;2023-11-18T06:36:46;2.00;;;1.80;;
3177;SDS011;38141;42.666;23.344;2023-11-18T06:39:12;2.87;;;2.20;;
3177;SDS011;38141;42.666;23.344;2023-11-18T06:41:41;1.60;;;1.50;;
3177;SDS011;38141;42.666;23.344;2023-11-18T06:44:17;3.53;;;1.83;;
3177;SDS011;38141;42.666;23.344;2023-11-18T06:46:49;2.33;;;1.70;;
3177;SDS011;38141;42.666;23.344;2023-11-18T06:49:17;1.63;;;1.37;;
3177;SDS011;38141;42.666;23.344;2023-11-18T06:51:44;1.77;;;1.50;;
3177;SDS011;38141;42.666;23.344;2023-11-18T06:54:12;1.97;;;1.60;;
3177;SDS011;38141;42.666;23.344;2023-11-18T06:56:40;1.70;;;1.60;;
3177;SDS011;38141;42.666;23.344;2023-11-18T06:59:09;2.20;;;1.70;;
3177;SDS011;38141;42.666;23.344;2023-11-18T07:01:39;3.20;;;2.00;;
3177;SDS011;38141;42.666;23.344;2023-11-18T07:04:07;3.10;;;2.57;;
3177;SDS011;38141;42.666;23.344;2023-11-18T07:06:35;3.70;;;2.87;;
3177;SDS011;38141;42.666;23.344;2023-11-18T07:09:08;4.27;;;2.73;;
3177;SDS011;38141;42.666;23.344;2023-11-18T07:11:42;2.60;;;2.03;;
3177;SDS011;38141;42.666;23.344;2023-11-18T07:14:10;2.33;;;2.10;;
3177;SDS011;38141;42.666;23.344;2023-11-18T07:16:40;7.20;;;4.80;;
3177;SDS011;38141;42.666;23.344;2023-11-18T07:19:08;3.00;;;2.20;;
3177;SDS011;38141;42.666;23.344;2023-11-18T07:21:45;1.87;;;1.50;;
3177;SDS011;38141;42.666;23.344;2023-11-18T07:24:13;1.80;;;1.60;;
3177;SDS011;38141;42.666;23.344;2023-11-18T07:26:40;2.90;;;1.60;;
3177;SDS011;38141;42.666;23.344;2023-11-18T07:29:07;1.70;;;1.50;;
3177;SDS011;38141;42.666;23.344;2023-11-18T07:31:39;2.30;;;1.97;;
3177;SDS011;38141;42.666;23.344;2023-11-18T07:34:10;1.97;;;1.77;;
3177;SDS011;38141;42.666;23.344;2023-11-18T07:36:37;7.53;;;2.63;;
3177;SDS011;38141;42.666;23.344;2023-11-18T07:39:04;2.00;;;1.50;;
3177;SDS011;38141;42.666;23.344;2023-11-18T07:41:40;2.60;;;2.07;;
3177;SDS011;38141;42.666;23.344;2023-11-18T07:44:07;2.80;;;1.70;;
3177;SDS011;38141;42.666;23.344;2023-11-18T07:46:38;3.33;;;2.03;;
3177;SDS011;38141;42.666;23.344;2023-11-18T07:49:09;1.90;;;1.70;;
3177;SDS011;38141;42.666;23.344;2023-11-18T07:51:36;3.00;;;1.70;;
3177;SDS011;38141;42.666;23.344;2023-11-18T07:54:03;2.93;;;1.60;;
3177;SDS011;38141;42.666;23.344;2023-11-18T07:56:30;2.10;;;1.73;;
3177;SDS011;38141;42.666;23.344;2023-11-18T07:58:57;3.20;;;2.60;;
3177;SDS011;38141;42.666;23.344;2023-11-18T08:01:24;4.60;;;1.80;;
3177;SDS011;38141;42.666;23.344;2023-11-18T08:03:51;2.60;;;1.73;;
3177;SDS011;38141;42.666;23.344;2023-11-18T08:06:21;2.70;;;1.90;;
3177;SDS011;38141;42.666;23.344;2023-11-18T08:08:51;2.20;;;2.00;;
3177;SDS011;38141;42.666;23.344;2023-11-18T08:11:19;6.00;;;2.37;;
3177;SDS011;38141;42.666;23.344;2023-11-18T08:13:46;2.77;;;2.10;;
3177;SDS011;38141;42.666;23.344;2023-11-18T08:16:16;3.60;;;1.97;;
3177;SDS011;38141;42.666;23.344;2023-11-18T08:18:43;4.40;;;2.07;;
3177;SDS011;38141;42.666;23.344;2023-11-18T08:21:10;2.30;;;1.90;;
3177;SDS011;38141;42.666;23.344;2023-11-18T08:23:39;2.00;;;1.90;;
3177;SDS011;38141;42.666;23.344;2023-11-18T08:26:06;2.43;;;2.07;;
3177;SDS011;38141;42.666;23.344;2023-11-18T08:28:34;2.80;;;1.90;;
3177;SDS011;38141;42.666;23.344;2023-11-18T08:31:01;4.50;;;2.20;;
3177;SDS011;38141;42.666;23.344;2023-11-18T08:33:28;2.87;;;1.90;;
3177;SDS011;38141;42.666;23.344;2023-11-18T08:35:55;3.50;;;2.20;;
3177;SDS011;38141;42.666;23.344;2023-11-18T08:38:22;2.80;;;2.20;;
3177;SDS011;38141;42.666;23.344;2023-11-18T08:40:51;2.00;;;1.80;;
3177;SDS011;38141;42.666;23.344;2023-11-18T08:43:18;3.33;;;2.27;;
3177;SDS011;38141;42.666;23.344;2023-11-18T08:45:46;2.43;;;1.90;;
3177;SDS011;38141;42.666;23.344;2023-11-18T08:48:15;4.77;;;2.37;;
3177;SDS011;38141;42.666;23.344;2023-11-18T08:50:43;2.60;;;2.20;;
3177;SDS011;38141;42.666;23.344;2023-11-18T08:53:10;2.43;;;1.80;;
3177;SDS011;38141;42.666;23.344;2023-11-18T08:55:37;3.93;;;1.67;;
3177;SDS011;38141;42.666;23.344;2023-11-18T08:58:06;3.73;;;1.90;;
3177;SDS011;38141;42.666;23.344;2023-11-18T09:00:44;5.60;;;3.50;;
3177;SDS011;38141;42.666;23.344;2023-11-18T09:03:18;2.83;;;2.10;;
3177;SDS011;38141;42.666;23.344;2023-11-18T09:05:53;2.43;;;1.90;;
3177;SDS011;38141;42.666;23.344;2023-11-18T09:08:24;2.83;;;2.00;;
3177;SDS011;38141;42.666;23.344;2023-11-18T09:10:52;2.30;;;2.10;;
3177;SDS011;38141;42.666;23.344;2023-11-18T09:13:23;2.03;;;1.80;;
3177;SDS011;38141;42.666;23.344;2023-11-18T09:15:53;1.93;;;1.73;;
3177;SDS011;38141;42.666;23.344;2023-11-18T09:18:21;3.20;;;1.67;;
3177;SDS011;38141;42.666;23.344;2023-11-18T09:20:49;2.03;;;1.73;;
3177;SDS011;38141;42.666;23.344;2023-11-18T09:23:20;2.60;;;2.10;;
3177;SDS011;38141;42.666;23.344;2023-11-18T09:25:52;2.30;;;2.10;;
3177;SDS011;38141;42.666;23.344;2023-11-18T09:28:20;2.70;;;2.20;;
3177;SDS011;38141;42.666;23.344;2023-11-18T09:30:51;2.43;;;2.00;;
3177;SDS011;38141;42.666;23.344;2023-11-18T09:33:23;2.80;;;2.50;;
3177;SDS011;38141;42.666;23.344;2023-11-18T09:35:59;2.50;;;2.30;;
3177;SDS011;38141;42.666;23.344;2023-11-18T09:38:27;2.43;;;2.10;;
3177;SDS011;38141;42.666;23.344;2023-11-18T09:40:54;2.47;;;2.00;;
3177;SDS011;38141;42.666;23.344;2023-11-18T09:43:26;2.30;;;2.07;;
3177;SDS011;38141;42.666;23.344;2023-11-18T09:46:02;2.17;;;1.80;;
3177;SDS011;38141;42.666;23.344;2023-11-18T09:48:37;2.73;;;2.00;;
3177;SDS011;38141;42.666;23.344;2023-11-18T09:51:12;2.33;;;2.13;;
3177;SDS011;38141;42.666;23.344;2023-11-18T09:53:49;3.47;;;1.90;;
3177;SDS011;38141;42.666;23.344;2023-11-18T09:56:18;2.30;;;2.10;;
3177;SDS011;38141;42.666;23.344;2023-11-18T09:58:57;2.73;;;2.33;;
3177;SDS011;38141;42.666;23.344;2023-11-18T10:01:35;2.30;;;1.90;;
3177;SDS011;38141;42.666;23.344;2023-11-18T10:04:08;3.80;;;1.77;;
3177;SDS011;38141;42.666;23.344;2023-11-18T10:06:36;1.93;;;1.70;;
3177;SDS011;38141;42.666;23.344;2023-11-18T10:09:06;2.80;;;2.30;;
3177;SDS011;38141;42.666;23.344;2023-11-18T10:11:43;2.50;;;2.20;;
3177;SDS011;38141;42.666;23.344;2023-11-18T10:14:12;2.37;;;1.70;;
3177;SDS011;38141;42.666;23.344;2023-11-18T10:16:43;2.83;;;2.10;;
3177;SDS011;38141;42.666;23.344;2023-11-18T10:19:14;6.23;;;2.47;;
3177;SDS011;38141;42.666;23.344;2023-11-18T10:21:42;3.03;;;2.13;;
3177;SDS011;38141;42.666;23.344;2023-11-18T10:24:14;2.53;;;1.97;;
3177;SDS011;38141;42.666;23.344;2023-11-18T10:26:44;3.00;;;2.60;;
3177;SDS011;38141;42.666;23.344;2023-11-18T10:29:21;2.30;;;2.10;;
3177;SDS011;38141;42.666;23.344;2023-11-18T10:32:03;2.40;;;1.80;;
3177;SDS011;38141;42.666;23.344;2023-11-18T10:34:34;2.87;;;2.07;;
3177;SDS011;38141;42.666;23.344;2023-11-18T10:37:02;2.23;;;2.03;;
3177;SDS011;38141;42.666;23.344;2023-11-18T10:39:32;2.70;;;2.10;;
3177;SDS011;38141;42.666;23.344;2023-11-18T10:42:00;2.83;;;2.07;;
3177;SDS011;38141;42.666;23.344;2023-11-18T10:44:27;2.80;;;2.30;;
3177;SDS011;38141;42.666;23.344;2023-11-18T10:46:56;2.20;;;1.67;;
3177;SDS011;38141;42.666;23.344;2023-11-18T10:49:25;2.20;;;2.00;;
3177;SDS011;38141;42.666;23.344;2023-11-18T10:51:53;2.70;;;1.80;;
3177;SDS011;38141;42.666;23.344;2023-11-18T10:54:22;2.43;;;2.17;;
3177;SDS011;38141;42.666;23.344;2023-11-18T10:56:51;3.47;;;2.33;;
3177;SDS011;38141;42.666;23.344;2023-11-18T10:59:21;1.90;;;1.80;;
3177;SDS011;38141;42.666;23.344;2023-11-18T11:01:49;3.43;;;1.90;;
3177;SDS011;38141;42.666;23.344;2023-11-18T11:04:16;2.23;;;1.73;;
3177;SDS011;38141;42.666;23.344;2023-11-18T11:06:47;2.23;;;1.90;;
3177;SDS011;38141;42.666;23.344;2023-11-18T11:09:18;1.80;;;1.70;;
3177;SDS011;38141;42.666;23.344;2023-11-18T11:11:51;2.40;;;1.70;;
3177;SDS011;38141;42.666;23.344;2023-11-18T11:14:23;2.37;;;2.00;;
3177;SDS011;38141;42.666;23.344;2023-11-18T11:17:00;1.70;;;1.60;;
3177;SDS011;38141;42.666;23.344;2023-11-18T11:19:38;1.93;;;1.70;;
3177;SDS011;38141;42.666;23.344;2023-11-18T11:22:16;2.50;;;1.60;;
3177;SDS011;38141;42.666;23.344;2023-11-18T11:24:54;1.50;;;1.40;;
3177;SDS011;38141;42.666;23.344;2023-11-18T11:27:38;2.10;;;1.70;;
3177;SDS011;38141;42.666;23.344;2023-11-18T11:30:16;7.07;;;2.97;;
3177;SDS011;38141;42.666;23.344;2023-11-18T11:32:50;4.77;;;2.10;;
3177;SDS011;38141;42.666;23.344;2023-11-18T11:35:20;3.33;;;2.17;;
3177;SDS011;38141;42.666;23.344;2023-11-18T11:37:53;2.20;;;1.73;;
3177;SDS011;38141;42.666;23.344;2023-11-18T11:40:28;3.43;;;1.90;;
3177;SDS011;38141;42.666;23.344;2023-11-18T11:42:57;2.33;;;2.00;;
3177;SDS011;38141;42.666;23.344;2023-11-18T11:45:30;4.30;;;1.90;;
3177;SDS011;38141;42.666;23.344;2023-11-18T11:47:59;1.73;;;1.63;;
3177;SDS011;38141;42.666;23.344;2023-11-18T11:50:54;2.43;;;2.00;;
3177;SDS011;38141;42.666;23.344;2023-11-18T11:53:32;3.40;;;2.20;;
3177;SDS011;38141;42.666;23.344;2023-11-18T11:56:04;3.47;;;2.40;;
3177;SDS011;38141;42.666;23.344;2023-11-18T11:58:33;3.67;;;2.27;;
3177;SDS011;38141;42.666;23.344;2023-11-18T12:01:02;2.30;;;2.00;;
3177;SDS011;38141;42.666;23.344;2023-11-18T12:03:43;2.20;;;1.90;;
3177;SDS011;38141;42.666;23.344;2023-11-18T12:06:13;2.40;;;2.00;;
3177;SDS011;38141;42.666;23.344;2023-11-18T12:08:48;3.80;;;2.00;;
3177;SDS011;38141;42.666;23.344;2023-11-18T12:11:17;2.57;;;2.23;;
3177;SDS011;38141;42.666;23.344;2023-11-18T12:13:59;2.27;;;2.07;;
3177;SDS011;38141;42.666;23.344;2023-11-18T12:19:34;3.10;;;2.43;;
3177;SDS011;38141;42.666;23.344;2023-11-18T12:22:12;4.67;;;2.70;;
3177;SDS011;38141;42.666;23.344;2023-11-18T12:24:45;2.30;;;2.10;;
3177;SDS011;38141;42.666;23.344;2023-11-18T12:33:08;6.60;;;2.63;;
3177;SDS011;38141;42.666;23.344;2023-11-18T12:35:44;3.13;;;2.50;;
3177;SDS011;38141;42.666;23.344;2023-11-18T12:38:45;4.13;;;2.40;;
3177;SDS011;38141;42.666;23.344;2023-11-18T12:42:01;3.57;;;2.67;;
3177;SDS011;38141;42.666;23.344;2023-11-18T12:44:35;2.30;;;2.10;;
3177;SDS011;38141;42.666;23.344;2023-11-18T12:47:05;2.93;;;2.63;;
3177;SDS011;38141;42.666;23.344;2023-11-18T12:49:46;3.07;;;2.60;;
3177;SDS011;38141;42.666;23.344;2023-11-18T12:52:20;4.33;;;2.87;;
3177;SDS011;38141;42.666;23.344;2023-11-18T12:54:48;9.57;;;2.90;;
3177;SDS011;38141;42.666;23.344;2023-11-18T12:57:18;2.30;;;2.10;;
3177;SDS011;38141;42.666;23.344;2023-11-18T12:59:48;3.60;;;3.03;;
3177;SDS011;38141;42.666;23.344;2023-11-18T13:02:16;4.00;;;2.70;;
3177;SDS011;38141;42.666;23.344;2023-11-18T13:04:44;2.40;;;2.07;;
3177;SDS011;38141;42.666;23.344;2023-11-18T13:07:12;3.40;;;2.63;;
3177;SDS011;38141;42.666;23.344;2023-11-18T13:09:40;5.63;;;3.10;;
3177;SDS011;38141;42.666;23.344;2023-11-18T13:12:09;4.00;;;2.60;;
3177;SDS011;38141;42.666;23.344;2023-11-18T13:14:41;3.53;;;2.63;;
3177;SDS011;38141;42.666;23.344;2023-11-18T13:17:09;3.20;;;2.60;;
3177;SDS011;38141;42.666;23.344;2023-11-18T13:19:41;3.13;;;2.70;;
3177;SDS011;38141;42.666;23.344;2023-11-18T13:22:09;5.43;;;3.27;;
3177;SDS011;38141;42.666;23.344;2023-11-18T13:24:37;4.23;;;3.10;;
3177;SDS011;38141;42.666;23.344;2023-11-18T13:27:05;4.27;;;3.10;;
3177;SDS011;38141;42.666;23.344;2023-11-18T13:29:34;4.40;;;3.33;;
3177;SDS011;38141;42.666;23.344;2023-11-18T13:32:06;5.13;;;3.30;;
3177;SDS011;38141;42.666;23.344;2023-11-18T13:34:34;4.70;;;3.10;;
3177;SDS011;38141;42.666;23.344;2023-11-18T13:37:03;6.30;;;3.10;;
3177;SDS011;38141;42.666;23.344;2023-11-18T13:39:31;5.00;;;3.10;;
3177;SDS011;38141;42.666;23.344;2023-11-18T13:41:58;3.53;;;3.00;;
3177;SDS011;38141;42.666;23.344;2023-11-18T13:44:45;5.17;;;3.50;;
3177;SDS011;38141;42.666;23.344;2023-11-18T13:47:15;5.20;;;3.33;;
3177;SDS011;38141;42.666;23.344;2023-11-18T13:49:43;4.47;;;3.60;;
3177;SDS011;38141;42.666;23.344;2023-11-18T13:52:12;3.83;;;3.50;;
3177;SDS011;38141;42.666;23.344;2023-11-18T13:54:42;3.77;;;3.03;;
3177;SDS011;38141;42.666;23.344;2023-11-18T13:57:10;4.77;;;3.23;;
3177;SDS011;38141;42.666;23.344;2023-11-18T13:59:40;3.83;;;3.30;;
3177;SDS011;38141;42.666;23.344;2023-11-18T14:02:09;4.70;;;3.30;;
3177;SDS011;38141;42.666;23.344;2023-11-18T14:04:39;5.30;;;4.23;;
3177;SDS011;38141;42.666;23.344;2023-11-18T14:07:13;5.70;;;3.87;;
3177;SDS011;38141;42.666;23.344;2023-11-18T14:09:42;5.00;;;3.87;;
3177;SDS011;38141;42.666;23.344;2023-11-18T14:12:10;3.73;;;3.10;;
3177;SDS011;38141;42.666;23.344;2023-11-18T14:14:38;5.13;;;3.90;;
3177;SDS011;38141;42.666;23.344;2023-11-18T14:17:14;4.53;;;3.73;;
3177;SDS011;38141;42.666;23.344;2023-11-18T14:19:44;4.83;;;3.80;;
3177;SDS011;38141;42.666;23.344;2023-11-18T14:22:11;4.03;;;3.63;;
3177;SDS011;38141;42.666;23.344;2023-11-18T14:24:38;4.50;;;3.87;;
3177;SDS011;38141;42.666;23.344;2023-11-18T14:27:05;5.00;;;3.80;;
3177;SDS011;38141;42.666;23.344;2023-11-18T14:29:35;6.20;;;4.00;;
3177;SDS011;38141;42.666;23.344;2023-11-18T14:32:01;5.10;;;3.57;;
3177;SDS011;38141;42.666;23.344;2023-11-18T14:34:29;3.97;;;3.57;;
3177;SDS011;38141;42.666;23.344;2023-11-18T14:36:57;4.70;;;3.87;;
3177;SDS011;38141;42.666;23.344;2023-11-18T14:39:26;4.67;;;4.03;;
3177;SDS011;38141;42.666;23.344;2023-11-18T14:41:53;5.73;;;5.03;;
3177;SDS011;38141;42.666;23.344;2023-11-18T14:44:20;4.97;;;4.47;;
3177;SDS011;38141;42.666;23.344;2023-11-18T14:46:47;7.23;;;4.90;;
3177;SDS011;38141;42.666;23.344;2023-11-18T14:49:14;4.90;;;4.13;;
3177;SDS011;38141;42.666;23.344;2023-11-18T14:51:43;5.43;;;4.40;;
3177;SDS011;38141;42.666;23.344;2023-11-18T14:54:12;4.50;;;3.60;;
3177;SDS011;38141;42.666;23.344;2023-11-18T14:56:39;5.20;;;4.20;;
3177;SDS011;38141;42.666;23.344;2023-11-18T14:59:06;13.13;;;7.30;;
3177;SDS011;38141;42.666;23.344;2023-11-18T15:01:33;4.50;;;3.60;;
3177;SDS011;38141;42.666;23.344;2023-11-18T15:04:00;6.00;;;4.23;;
3177;SDS011;38141;42.666;23.344;2023-11-18T15:06:32;5.70;;;4.10;;
3177;SDS011;38141;42.666;23.344;2023-11-18T15:09:00;6.70;;;4.43;;
3177;SDS011;38141;42.666;23.344;2023-11-18T15:11:33;5.80;;;4.27;;